createdAt,value
2023-04-18T00:01:45.742Z,7.40
2023-04-18T00:04:14.467Z,7.30
2023-04-18T00:06:42.812Z,7.30
2023-04-18T00:09:10.882Z,7.30
2023-04-18T00:11:38.806Z,7.30
2023-04-18T00:14:10.420Z,7.30
2023-04-18T00:16:39.917Z,7.20
2023-04-18T00:19:08.669Z,7.20
2023-04-18T00:21:37.221Z,7.30
2023-04-18T00:24:07.860Z,7.20
2023-04-18T00:26:35.783Z,7.20
2023-04-18T00:29:04.343Z,7.20
2023-04-18T00:31:32.573Z,7.20
2023-04-18T00:34:01.843Z,7.20
2023-04-18T00:36:29.752Z,7.20
2023-04-18T00:38:57.658Z,7.20
2023-04-18T00:41:28.329Z,7.20
2023-04-18T00:43:56.238Z,7.10
2023-04-18T00:46:24.183Z,7.10
2023-04-18T00:48:52.222Z,7.10
2023-04-18T00:51:22.192Z,7.10
2023-04-18T00:53:50.684Z,7.10
2023-04-18T00:56:18.650Z,7.10
2023-04-18T00:58:46.621Z,7.00
2023-04-18T01:01:14.541Z,7.00
2023-04-18T01:03:42.648Z,7.00
2023-04-18T01:06:11.011Z,7.00
2023-04-18T01:08:40.417Z,7.00
2023-04-18T01:11:08.342Z,6.90
2023-04-18T01:13:36.257Z,6.90
2023-04-18T01:16:04.302Z,6.90
2023-04-18T01:18:32.447Z,6.80
2023-04-18T01:21:00.953Z,6.80
2023-04-18T01:23:28.875Z,6.80
2023-04-18T01:25:58.550Z,6.80
2023-04-18T01:28:27.683Z,6.70
2023-04-18T01:30:55.884Z,6.70
2023-04-18T01:33:23.785Z,6.70
2023-04-18T01:35:51.709Z,6.60
2023-04-18T01:38:19.629Z,6.60
2023-04-18T01:40:47.629Z,6.60
2023-04-18T01:43:16.853Z,6.60
2023-04-18T01:45:44.762Z,6.60
2023-04-18T01:48:12.654Z,6.60
2023-04-18T01:50:40.630Z,6.50
2023-04-18T01:53:08.550Z,6.50
2023-04-18T01:55:36.498Z,6.50
2023-04-18T01:58:04.369Z,6.50
2023-04-18T02:00:36.282Z,6.40
2023-04-18T02:03:04.309Z,6.40
2023-04-18T02:05:32.275Z,6.40
2023-04-18T02:08:00.299Z,6.40
2023-04-18T02:10:28.241Z,6.30
2023-04-18T02:12:56.138Z,6.30
2023-04-18T02:15:25.299Z,6.30
2023-04-18T02:17:55.197Z,6.30
2023-04-18T02:20:23.329Z,6.20
2023-04-18T02:22:51.332Z,6.20
2023-04-18T02:25:19.340Z,6.20
2023-04-18T02:27:47.239Z,6.20
2023-04-18T02:30:15.519Z,6.10
2023-04-18T02:32:43.912Z,6.10
2023-04-18T02:35:13.565Z,6.10
2023-04-18T02:37:41.490Z,6.00
2023-04-18T02:40:10.719Z,6.00
2023-04-18T02:42:38.647Z,6.00
2023-04-18T02:45:08.000Z,6.00
2023-04-18T02:47:47.112Z,6.00
2023-04-18T02:50:23.516Z,5.90
2023-04-18T02:52:51.471Z,5.90
2023-04-18T02:55:19.977Z,5.90
2023-04-18T02:57:47.872Z,5.90
2023-04-18T03:00:16.150Z,5.90
2023-04-18T03:02:44.182Z,5.90
2023-04-18T03:05:12.457Z,5.80
2023-04-18T03:07:41.832Z,5.80
2023-04-18T03:10:10.514Z,5.80
2023-04-18T03:12:38.484Z,5.70
2023-04-18T03:15:07.764Z,5.70
2023-04-18T03:17:36.430Z,5.70
2023-04-18T03:20:04.637Z,5.70
2023-04-18T03:22:32.569Z,5.70
2023-04-18T03:25:01.898Z,5.60
2023-04-18T03:27:29.780Z,5.60
2023-04-18T03:29:57.802Z,5.60
2023-04-18T03:32:25.838Z,5.60
2023-04-18T03:34:53.785Z,5.50
2023-04-18T03:37:21.720Z,5.50
2023-04-18T03:39:49.579Z,5.50
2023-04-18T03:42:18.854Z,5.50
2023-04-18T03:44:46.781Z,5.50
2023-04-18T03:47:15.507Z,5.50
2023-04-18T03:49:43.402Z,5.50
2023-04-18T03:52:11.314Z,5.40
2023-04-18T03:54:39.195Z,5.40
2023-04-18T03:57:07.068Z,5.40
2023-04-18T03:59:36.312Z,5.40
2023-04-18T04:02:04.505Z,5.40
2023-04-18T04:04:32.493Z,5.30
2023-04-18T04:07:00.948Z,5.30
2023-04-18T04:09:28.865Z,5.30
2023-04-18T04:11:56.824Z,5.30
2023-04-18T04:14:24.796Z,5.20
2023-04-18T04:16:54.093Z,5.20
2023-04-18T04:19:22.036Z,5.20
2023-04-18T04:21:49.968Z,5.20
2023-04-18T04:24:17.881Z,5.20
2023-04-18T04:26:46.639Z,5.20
2023-04-18T04:29:16.034Z,5.20
2023-04-18T04:31:44.107Z,5.10
2023-04-18T04:34:13.673Z,5.10
2023-04-18T04:36:43.133Z,5.10
2023-04-18T04:39:11.692Z,5.10
2023-04-18T04:41:41.353Z,5.10
2023-04-18T04:44:09.653Z,5.10
2023-04-18T04:46:39.355Z,5.10
2023-04-18T04:49:07.354Z,5.10
2023-04-18T04:51:36.788Z,5.10
2023-04-18T04:54:04.902Z,5.10
2023-04-18T04:56:33.146Z,5.10
2023-04-18T04:59:01.888Z,5.10
2023-04-18T05:01:29.871Z,5.10
2023-04-18T05:03:57.884Z,5.10
2023-04-18T05:06:26.484Z,5.10
2023-04-18T05:08:56.718Z,5.10
2023-04-18T05:11:24.662Z,5.10
2023-04-18T05:13:52.596Z,5.20
2023-04-18T05:16:20.828Z,5.20
2023-04-18T05:18:48.748Z,5.20
2023-04-18T05:21:20.117Z,5.20
2023-04-18T05:23:47.996Z,5.30
2023-04-18T05:26:17.500Z,5.30
2023-04-18T05:28:45.506Z,5.30
2023-04-18T05:31:13.470Z,5.40
2023-04-18T05:33:41.440Z,5.40
2023-04-18T05:36:09.680Z,5.50
2023-04-18T05:38:37.603Z,5.50
2023-04-18T05:41:05.585Z,5.50
2023-04-18T05:43:34.831Z,5.60
2023-04-18T05:46:07.824Z,5.70
2023-04-18T05:48:35.749Z,5.70
2023-04-18T05:51:08.635Z,5.80
2023-04-18T05:53:37.326Z,5.80
2023-04-18T05:56:05.863Z,5.90
2023-04-18T05:58:35.097Z,5.90
2023-04-18T06:01:02.995Z,6.00
2023-04-18T06:03:31.024Z,6.00
2023-04-18T06:05:59.184Z,6.10
2023-04-18T06:08:27.122Z,6.10
2023-04-18T06:10:55.002Z,6.20
2023-04-18T06:13:22.895Z,6.30
2023-04-18T06:15:52.177Z,6.30
2023-04-18T06:18:20.128Z,6.40
2023-04-18T06:20:48.066Z,6.50
2023-04-18T06:23:16.013Z,6.50
2023-04-18T06:25:44.017Z,6.50
2023-04-18T06:28:11.944Z,6.60
2023-04-18T06:30:39.815Z,6.70
2023-04-18T06:33:11.053Z,6.80
2023-04-18T06:35:39.170Z,6.80
2023-04-18T06:38:07.208Z,6.90
2023-04-18T06:40:35.194Z,7.00
2023-04-18T06:43:03.131Z,7.10
2023-04-18T06:45:31.724Z,7.10
2023-04-18T06:47:59.991Z,7.20
2023-04-18T06:50:29.769Z,7.20
2023-04-18T06:52:57.749Z,7.30
2023-04-18T06:55:25.676Z,7.40
2023-04-18T06:57:54.255Z,7.50
2023-04-18T07:00:22.489Z,7.50
2023-04-18T07:02:50.480Z,7.60
2023-04-18T07:05:18.477Z,7.60
2023-04-18T07:07:47.768Z,7.70
2023-04-18T07:10:15.687Z,7.80
2023-04-18T07:12:43.596Z,7.80
2023-04-18T07:15:13.325Z,7.90
2023-04-18T07:17:41.348Z,8.00
2023-04-18T07:20:12.348Z,8.00
2023-04-18T07:22:42.145Z,8.00
2023-04-18T07:25:11.706Z,8.10
2023-04-18T07:27:39.639Z,8.20
2023-04-18T07:30:08.907Z,8.20
2023-04-18T07:32:36.862Z,8.30
2023-04-18T07:35:05.234Z,8.40
2023-04-18T07:37:33.342Z,8.50
2023-04-18T07:40:01.300Z,8.60
2023-04-18T07:42:30.552Z,8.70
2023-04-18T07:44:59.227Z,8.80
2023-04-18T07:47:30.264Z,8.80
2023-04-18T07:49:58.425Z,8.90
2023-04-18T07:52:26.521Z,9.00
2023-04-18T07:54:54.414Z,9.10
2023-04-18T07:57:22.333Z,9.20
2023-04-18T07:59:53.725Z,9.20
2023-04-18T08:02:22.080Z,9.30
2023-04-18T08:04:52.229Z,9.40
2023-04-18T08:07:20.419Z,9.50
2023-04-18T08:09:48.366Z,9.60
2023-04-18T08:12:16.274Z,9.60
2023-04-18T08:14:44.197Z,9.70
2023-04-18T08:17:13.516Z,9.90
2023-04-18T08:19:41.413Z,10.00
2023-04-18T08:22:10.855Z,10.10
2023-04-18T08:24:39.493Z,10.20
2023-04-18T08:27:07.829Z,10.30
2023-04-18T08:29:35.988Z,10.30
2023-04-18T08:32:04.219Z,10.30
2023-04-18T08:34:37.995Z,10.30
2023-04-18T08:37:07.214Z,10.40
2023-04-18T08:39:35.264Z,10.40
2023-04-18T08:42:03.521Z,10.50
2023-04-18T08:44:32.725Z,10.50
2023-04-18T08:47:02.111Z,10.60
2023-04-18T08:49:31.552Z,10.50
2023-04-18T08:52:02.279Z,10.60
2023-04-18T08:54:31.142Z,10.50
2023-04-18T08:57:05.668Z,10.50
2023-04-18T08:59:35.641Z,10.60
2023-04-18T09:02:04.923Z,10.60
2023-04-18T09:04:40.832Z,10.60
2023-04-18T09:07:12.108Z,10.80
2023-04-18T09:09:44.657Z,10.90
2023-04-18T09:12:14.540Z,11.00
2023-04-18T09:14:50.373Z,11.00
2023-04-18T09:17:34.889Z,11.00
2023-04-18T09:20:06.269Z,11.00
2023-04-18T09:22:50.457Z,11.00
2023-04-18T09:25:29.244Z,11.00
2023-04-18T09:28:00.896Z,11.00
2023-04-18T09:30:46.945Z,10.90
2023-04-18T09:33:15.590Z,10.90
2023-04-18T09:35:43.599Z,10.80
2023-04-18T09:38:12.934Z,10.80
2023-04-18T09:40:40.837Z,10.80
2023-04-18T09:43:20.144Z,10.80
2023-04-18T09:45:49.320Z,10.80
2023-04-18T09:48:17.438Z,10.80
2023-04-18T09:50:47.034Z,10.80
2023-04-18T09:53:20.816Z,10.80
2023-04-18T09:55:52.192Z,10.80
2023-04-18T09:58:23.163Z,10.80
2023-04-18T10:00:52.596Z,10.80
2023-04-18T10:03:21.348Z,10.70
2023-04-18T10:05:50.032Z,10.70
2023-04-18T10:08:19.825Z,10.70
2023-04-18T10:10:47.864Z,10.70
2023-04-18T10:13:16.272Z,10.60
2023-04-18T10:15:45.373Z,10.60
2023-04-18T10:18:16.484Z,10.60
2023-04-18T10:20:44.755Z,10.60
2023-04-18T10:23:39.948Z,10.60
2023-04-18T10:26:08.501Z,10.60
2023-04-18T10:28:56.570Z,10.60
2023-04-18T10:31:25.793Z,10.60
2023-04-18T10:34:04.662Z,10.60
2023-04-18T10:36:34.037Z,10.60
2023-04-18T10:39:20.413Z,10.60
2023-04-18T10:41:51.159Z,10.60
2023-04-18T10:44:22.223Z,10.60
2023-04-18T10:47:32.081Z,10.70
2023-04-18T10:50:06.339Z,10.80
2023-04-18T10:52:37.327Z,10.90
2023-04-18T10:55:19.683Z,11.10
2023-04-18T10:57:48.976Z,11.20
2023-04-18T11:00:18.842Z,11.30
2023-04-18T11:02:55.898Z,11.30
2023-04-18T11:05:25.895Z,11.40
2023-04-18T11:07:54.359Z,11.40
2023-04-18T11:10:25.558Z,11.40
2023-04-18T11:12:54.101Z,11.50
2023-04-18T11:15:23.383Z,11.60
2023-04-18T11:17:59.450Z,11.60
2023-04-18T11:20:27.861Z,11.60
2023-04-18T11:22:58.189Z,11.60
2023-04-18T11:25:29.180Z,11.60
2023-04-18T11:28:00.284Z,11.70
2023-04-18T11:30:28.999Z,11.70
2023-04-18T11:32:57.005Z,11.80
2023-04-18T11:35:25.085Z,11.90
2023-04-18T11:37:55.353Z,11.90
2023-04-18T11:40:23.430Z,12.00
2023-04-18T11:42:56.327Z,12.10
2023-04-18T11:45:24.292Z,12.20
2023-04-18T11:47:58.215Z,12.20
2023-04-18T11:50:26.948Z,12.30
2023-04-18T11:52:55.834Z,12.20
2023-04-18T11:55:27.097Z,12.30
2023-04-18T11:57:57.973Z,12.20
2023-04-18T12:00:34.109Z,12.30
2023-04-18T12:03:04.602Z,12.30
2023-04-18T12:05:35.301Z,12.30
2023-04-18T12:08:08.051Z,12.40
2023-04-18T12:10:36.886Z,12.40
2023-04-18T12:13:09.578Z,12.50
2023-04-18T12:15:40.338Z,12.60
2023-04-18T12:18:09.395Z,12.70
2023-04-18T12:20:39.612Z,12.90
2023-04-18T12:23:07.922Z,13.10
2023-04-18T12:25:36.372Z,13.20
2023-04-18T12:28:14.742Z,13.30
2023-04-18T12:30:44.156Z,13.50
2023-04-18T12:33:12.648Z,13.70
2023-04-18T12:35:41.136Z,13.80
2023-04-18T12:38:09.094Z,13.90
2023-04-18T12:40:39.430Z,14.00
2023-04-18T12:43:07.809Z,13.90
2023-04-18T12:45:35.749Z,13.90
2023-04-18T12:48:05.326Z,13.80
2023-04-18T12:50:33.426Z,13.60
2023-04-18T12:53:02.568Z,13.60
2023-04-18T12:55:30.696Z,13.60
2023-04-18T12:57:59.019Z,13.70
2023-04-18T13:00:28.918Z,13.80
2023-04-18T13:02:57.415Z,13.80
2023-04-18T13:05:31.636Z,13.70
2023-04-18T13:10:32.170Z,13.60
2023-04-18T13:13:00.185Z,13.60
2023-04-18T13:15:28.081Z,13.60
2023-04-18T13:17:57.145Z,13.70
2023-04-18T13:20:26.779Z,13.80
2023-04-18T13:22:54.736Z,13.90
2023-04-18T13:25:23.124Z,14.00
2023-04-18T13:27:51.172Z,13.90
2023-04-18T13:30:19.402Z,14.00
2023-04-18T13:32:47.440Z,14.10
2023-04-18T13:35:15.423Z,14.10
2023-04-18T13:37:44.828Z,14.30
2023-04-18T13:40:13.635Z,14.60
2023-04-18T13:42:41.602Z,15.10
2023-04-18T13:45:09.975Z,15.50
2023-04-18T13:47:38.388Z,15.80
2023-04-18T13:50:07.350Z,16.00
2023-04-18T13:52:35.291Z,16.00
2023-04-18T13:55:04.900Z,16.00
2023-04-18T13:57:33.507Z,15.90
2023-04-18T14:00:01.563Z,15.80
2023-04-18T14:02:29.653Z,15.70
2023-04-18T14:04:58.314Z,15.60
2023-04-18T14:07:26.434Z,15.50
2023-04-18T14:09:54.590Z,15.30
2023-04-18T14:12:23.913Z,15.30
2023-04-18T14:14:51.804Z,15.30
2023-04-18T14:17:19.765Z,15.10
2023-04-18T14:19:48.519Z,15.00
2023-04-18T14:22:16.460Z,14.90
2023-04-18T14:24:44.383Z,14.80
2023-04-18T14:27:12.300Z,14.60
2023-04-18T14:29:41.585Z,14.50
2023-04-18T14:32:09.566Z,14.40
2023-04-18T14:34:38.787Z,14.30
2023-04-18T14:37:06.929Z,14.20
2023-04-18T14:39:34.836Z,14.10
2023-04-18T14:42:02.784Z,14.00
2023-04-18T14:44:31.428Z,14.00
2023-04-18T14:47:01.450Z,13.90
2023-04-18T14:49:29.514Z,14.00
2023-04-18T14:51:57.432Z,14.00
2023-04-18T14:54:25.344Z,14.00
2023-04-18T14:56:53.244Z,14.00
2023-04-18T14:59:21.201Z,14.10
2023-04-18T15:01:49.169Z,14.20
2023-04-18T15:04:18.605Z,14.20
2023-04-18T15:06:46.749Z,14.30
2023-04-18T15:09:15.394Z,14.50
2023-04-18T15:11:43.378Z,14.60
2023-04-18T15:14:11.417Z,14.70
2023-04-18T15:16:40.789Z,14.70
2023-04-18T15:19:08.889Z,14.80
2023-04-18T15:21:38.198Z,14.80
2023-04-18T15:24:06.529Z,14.80
2023-04-18T15:26:34.486Z,14.80
2023-04-18T15:29:03.596Z,14.80
2023-04-18T15:31:31.754Z,14.80
2023-04-18T15:33:59.877Z,14.80
2023-04-18T15:36:28.756Z,14.80
2023-04-18T15:38:58.024Z,14.70
2023-04-18T15:41:25.965Z,14.70
2023-04-18T15:43:54.019Z,14.60
2023-04-18T15:46:23.138Z,14.50
2023-04-18T15:48:52.094Z,14.40
2023-04-18T15:51:20.017Z,14.30
2023-04-18T15:53:47.940Z,14.30
2023-04-18T15:56:17.218Z,14.30
2023-04-18T15:58:45.600Z,14.30
2023-04-18T16:01:15.913Z,14.30
2023-04-18T16:03:44.133Z,14.20
2023-04-18T16:06:12.375Z,14.20
2023-04-18T16:08:40.329Z,14.10
2023-04-18T16:11:08.378Z,14.10
2023-04-18T16:13:38.367Z,14.00
2023-04-18T16:16:07.229Z,13.80
2023-04-18T16:18:35.148Z,13.80
2023-04-18T16:21:03.092Z,13.80
2023-04-18T16:23:32.876Z,13.80
2023-04-18T16:26:00.846Z,13.90
2023-04-18T16:28:29.945Z,13.90
2023-04-18T16:30:59.407Z,13.90
2023-04-18T16:33:27.416Z,13.80
2023-04-18T16:35:58.472Z,13.80
2023-04-18T16:38:27.355Z,13.90
2023-04-18T16:40:56.968Z,13.90
2023-04-18T16:43:26.815Z,14.00
2023-04-18T16:45:56.310Z,14.00
2023-04-18T16:48:25.806Z,14.10
2023-04-18T16:50:53.715Z,14.00
2023-04-18T16:53:22.618Z,13.90
2023-04-18T16:55:52.179Z,13.80
2023-04-18T16:58:21.069Z,13.60
2023-04-18T17:00:49.217Z,13.50
2023-04-18T17:03:17.252Z,13.40
2023-04-18T17:05:46.582Z,13.30
2023-04-18T17:08:14.487Z,13.30
2023-04-18T17:10:42.495Z,13.30
2023-04-18T17:13:10.450Z,13.30
2023-04-18T17:15:38.387Z,13.30
2023-04-18T17:18:06.496Z,13.30
2023-04-18T17:20:35.982Z,13.30
2023-04-18T17:23:05.355Z,13.30
2023-04-18T17:25:33.250Z,13.20
2023-04-18T17:28:02.177Z,13.20
2023-04-18T17:30:30.406Z,13.10
2023-04-18T17:32:58.380Z,13.10
2023-04-18T17:35:26.284Z,13.00
2023-04-18T17:37:54.219Z,12.90
2023-04-18T17:40:23.655Z,12.90
2023-04-18T17:42:51.565Z,12.80
2023-04-18T17:45:20.387Z,12.70
2023-04-18T17:47:49.880Z,12.70
2023-04-18T17:50:17.933Z,12.60
2023-04-18T17:52:46.380Z,12.50
2023-04-18T17:55:14.539Z,12.50
2023-04-18T17:57:43.799Z,12.40
2023-04-18T18:00:13.818Z,12.30
2023-04-18T18:02:42.756Z,12.30
2023-04-18T18:05:13.852Z,12.20
2023-04-18T18:07:43.340Z,12.10
2023-04-18T18:10:12.616Z,12.10
2023-04-18T18:12:40.991Z,12.00
2023-04-18T18:15:11.324Z,11.90
2023-04-18T18:17:39.298Z,11.80
2023-04-18T18:20:09.801Z,11.70
2023-04-18T18:22:38.080Z,11.70
2023-04-18T18:25:07.302Z,11.60
2023-04-18T18:27:35.293Z,11.50
2023-04-18T18:30:03.738Z,11.50
2023-04-18T18:32:35.198Z,11.40
2023-04-18T18:35:04.215Z,11.30
2023-04-18T18:37:32.185Z,11.30
2023-04-18T18:40:00.167Z,11.20
2023-04-18T18:42:28.077Z,11.10
2023-04-18T18:44:55.993Z,11.00
2023-04-18T18:47:26.678Z,10.90
2023-04-18T18:49:57.139Z,10.90
2023-04-18T18:52:25.196Z,10.90
2023-04-18T18:54:54.577Z,10.80
2023-04-18T18:57:22.508Z,10.80
2023-04-18T18:59:50.485Z,10.70
2023-04-18T19:02:18.540Z,10.60
2023-04-18T19:04:46.750Z,10.50
2023-04-18T19:07:16.290Z,10.50
2023-04-18T19:09:45.610Z,10.40
2023-04-18T19:12:13.529Z,10.40
2023-04-18T19:14:42.452Z,10.30
2023-04-18T19:17:10.484Z,10.30
2023-04-18T19:19:38.405Z,10.20
2023-04-18T19:22:06.787Z,10.20
2023-04-18T19:24:36.132Z,10.10
2023-04-18T19:27:04.351Z,10.10
2023-04-18T19:29:33.023Z,10.00
2023-04-18T19:32:03.105Z,10.00
2023-04-18T19:34:31.231Z,10.00
2023-04-18T19:36:59.695Z,9.90
2023-04-18T19:39:27.664Z,9.90
2023-04-18T19:41:57.045Z,9.90
2023-04-18T19:44:25.087Z,9.80
2023-04-18T19:46:53.010Z,9.80
2023-04-18T19:49:22.366Z,9.80
2023-04-18T19:51:51.356Z,9.70
2023-04-18T19:54:21.630Z,9.70
2023-04-18T19:56:51.142Z,9.60
2023-04-18T19:59:20.549Z,9.60
2023-04-18T20:01:48.500Z,9.50
2023-04-18T20:04:16.648Z,9.50
2023-04-18T20:06:44.602Z,9.50
2023-04-18T20:09:16.681Z,9.40
2023-04-18T20:11:46.398Z,9.40
2023-04-18T20:14:14.319Z,9.40
2023-04-18T20:16:45.684Z,9.40
2023-04-18T20:19:14.069Z,9.30
2023-04-18T20:21:42.248Z,9.30
2023-04-18T20:24:10.579Z,9.20
2023-04-18T20:26:38.500Z,9.20
2023-04-18T20:29:06.441Z,9.20
2023-04-18T20:31:34.995Z,9.10
2023-04-18T20:34:04.273Z,9.10
2023-04-18T20:36:35.421Z,9.00
2023-04-18T20:39:03.366Z,9.00
2023-04-18T20:41:32.408Z,9.00
2023-04-18T20:44:05.011Z,8.90
2023-04-18T20:46:32.987Z,8.90
2023-04-18T20:49:00.971Z,8.90
2023-04-18T20:51:31.723Z,8.80
2023-04-18T20:53:59.632Z,8.80
2023-04-18T20:56:27.582Z,8.80
2023-04-18T20:58:55.644Z,8.80
2023-04-18T21:01:23.833Z,8.70
2023-04-18T21:03:52.034Z,8.70
2023-04-18T21:06:21.983Z,8.70
2023-04-18T21:08:51.544Z,8.60
2023-04-18T21:11:19.460Z,8.60
2023-04-18T21:13:47.338Z,8.50
2023-04-18T21:16:15.276Z,8.50
2023-04-18T21:18:43.244Z,8.40
2023-04-18T21:21:11.706Z,8.30
2023-04-18T21:23:43.680Z,8.30
2023-04-18T21:26:14.292Z,8.20
2023-04-18T21:28:56.300Z,8.20
2023-04-18T21:31:24.442Z,8.10
2023-04-18T21:33:55.934Z,8.10
2023-04-18T21:36:26.276Z,8.10
2023-04-18T21:38:54.973Z,8.00
2023-04-18T21:41:25.006Z,8.00
2023-04-18T21:43:53.602Z,7.90
2023-04-18T21:46:21.629Z,7.90
2023-04-18T21:48:49.847Z,7.90
2023-04-18T21:51:18.389Z,7.80
2023-04-18T21:53:46.334Z,7.80
2023-04-18T21:56:14.311Z,7.80
2023-04-18T21:58:43.649Z,7.80
2023-04-18T22:01:11.662Z,7.70
2023-04-18T22:03:39.808Z,7.70
2023-04-18T22:06:08.346Z,7.60
2023-04-18T22:08:36.631Z,7.60
2023-04-18T22:11:05.115Z,7.60
2023-04-18T22:13:33.866Z,7.50
2023-04-18T22:16:03.889Z,7.50
2023-04-18T22:18:34.258Z,7.40
2023-04-18T22:21:03.092Z,7.40
2023-04-18T22:23:31.654Z,7.40
2023-04-18T22:25:59.730Z,7.40
2023-04-18T22:28:28.766Z,7.30
2023-04-18T22:30:56.795Z,7.30
2023-04-18T22:33:26.172Z,7.30
2023-04-18T22:35:54.250Z,7.20
2023-04-18T22:38:22.213Z,7.20
2023-04-18T22:40:50.180Z,7.10
2023-04-18T22:43:22.433Z,7.10
2023-04-18T22:45:50.883Z,7.10
2023-04-18T22:48:18.950Z,7.00
2023-04-18T22:50:49.790Z,7.00
2023-04-18T22:53:18.317Z,6.90
2023-04-18T22:55:46.602Z,6.90
2023-04-18T22:58:14.605Z,6.90
2023-04-18T23:00:42.516Z,6.80
2023-04-18T23:03:10.603Z,6.80
2023-04-18T23:05:38.715Z,6.80
2023-04-18T23:08:07.969Z,6.70
2023-04-18T23:10:36.112Z,6.70
2023-04-18T23:13:04.012Z,6.70
2023-04-18T23:15:32.024Z,6.70
2023-04-18T23:18:00.070Z,6.60
2023-04-18T23:20:28.107Z,6.60
2023-04-18T23:22:56.115Z,6.60
2023-04-18T23:25:25.558Z,6.60
2023-04-18T23:27:53.459Z,6.60
2023-04-18T23:30:21.393Z,6.60
2023-04-18T23:32:49.491Z,6.50
2023-04-18T23:35:17.664Z,6.50
2023-04-18T23:37:45.637Z,6.50
2023-04-18T23:40:13.558Z,6.40
2023-04-18T23:42:43.048Z,6.40
2023-04-18T23:45:11.761Z,6.40
2023-04-18T23:47:39.755Z,6.40
2023-04-18T23:50:09.251Z,6.40
2023-04-18T23:52:38.120Z,6.40
2023-04-18T23:55:06.791Z,6.30
2023-04-18T23:57:35.833Z,6.30
